Weather at Al Ghuwaifat Customs Post Helipad [CLOSED]

Public forecast

Using degrees Celsius for public forecast. Weather courtesy of forecast.io.

Closest aviation weather report (METAR) to Al Ghuwaifat Customs Post Helipad

Closest report is Al Udeid Air Base, 61.6 nm (114.1 km) NNW.

2023/03/26 02:29 (retrieved 16 minutes ago)

OTBH 260229Z 09005KT 9999 FEW150 20/18 A2981 Q1009 RMK AO2A TWR VIS 4000 SLP096 FZRANO CHINO RWY34

Closest aviation forecast (TAF) to Al Ghuwaifat Customs Post Helipad

Forecast is more than 6 hours old.

Closest forecast is Hamad International Airport, 68.7 nm (127.3 km) N.

2023/03/25 18:00 (retrieved 9 hours ago)

TAF OTHH 251701Z 2518/2624 13010KT CAVOK TEMPO 2612/2624 07012KT PROB40 TEMPO 2614/2624 01018KT 7000 -RA FEW050 BKN120 PROB30 TEMPO 2620/2624 5000 SHRA FEW050CB